createdAt,value
2022-08-23T00:01:58.300Z,3.30
2022-08-23T00:04:34.733Z,3.20
2022-08-23T00:07:05.399Z,3.67
2022-08-23T00:09:32.544Z,3.47
2022-08-23T00:12:22.637Z,2.97
2022-08-23T00:14:54.431Z,2.50
2022-08-23T00:17:31.139Z,4.40
2022-08-23T00:20:00.936Z,4.17
2022-08-23T00:22:27.867Z,3.80
2022-08-23T00:24:54.805Z,3.90
2022-08-23T00:27:21.659Z,3.20
2022-08-23T00:29:57.456Z,3.87
2022-08-23T00:32:32.525Z,4.17
2022-08-23T00:35:03.827Z,3.77
2022-08-23T00:37:32.654Z,3.40
2022-08-23T00:40:00.980Z,3.40
2022-08-23T00:43:27.081Z,3.23
2022-08-23T00:46:50.737Z,2.47
2022-08-23T00:49:19.429Z,3.70
2022-08-23T00:51:57.563Z,4.00
2022-08-23T00:54:28.564Z,3.87
2022-08-23T00:56:58.602Z,3.40
2022-08-23T00:59:26.254Z,3.97
2022-08-23T01:01:53.372Z,3.43
2022-08-23T01:04:21.003Z,3.00
2022-08-23T01:07:02.388Z,2.40
2022-08-23T01:09:29.492Z,2.90
2022-08-23T01:12:06.708Z,3.00
2022-08-23T01:14:51.454Z,3.20
2022-08-23T01:17:28.708Z,2.70
2022-08-23T01:20:03.691Z,2.90
2022-08-23T01:22:41.360Z,2.90
2022-08-23T01:25:14.380Z,2.50
2022-08-23T01:27:45.895Z,3.27
2022-08-23T01:30:25.883Z,3.40
2022-08-23T01:33:02.055Z,3.90
2022-08-23T01:36:02.187Z,3.37
2022-08-23T01:38:32.844Z,2.50
2022-08-23T01:41:00.753Z,4.33
2022-08-23T01:43:28.717Z,3.37
2022-08-23T01:45:56.315Z,2.07
2022-08-23T01:48:24.730Z,4.87
2022-08-23T01:50:52.101Z,3.47
2022-08-23T01:53:19.457Z,3.40
2022-08-23T01:55:49.679Z,2.93
2022-08-23T01:58:19.123Z,3.70
2022-08-23T02:00:46.071Z,3.60
2022-08-23T02:03:13.719Z,3.30
2022-08-23T02:05:43.406Z,3.33
2022-08-23T02:08:30.871Z,3.27
2022-08-23T02:11:00.060Z,4.03
2022-08-23T02:13:27.202Z,3.80
2022-08-23T02:15:55.070Z,2.93
2022-08-23T02:18:23.386Z,3.30
2022-08-23T02:20:52.483Z,3.57
2022-08-23T02:23:21.707Z,3.50
2022-08-23T02:25:51.615Z,5.10
2022-08-23T02:28:21.159Z,5.23
2022-08-23T02:30:49.822Z,4.00
2022-08-23T02:33:17.781Z,3.47
2022-08-23T02:35:44.946Z,3.30
2022-08-23T02:38:13.299Z,3.33
2022-08-23T02:40:43.187Z,4.13
2022-08-23T02:43:12.156Z,3.30
2022-08-23T02:45:40.220Z,4.27
2022-08-23T02:48:09.284Z,4.60
2022-08-23T02:51:01.165Z,4.63
2022-08-23T02:53:29.368Z,5.63
2022-08-23T02:55:57.292Z,5.43
2022-08-23T02:58:26.099Z,5.67
2022-08-23T03:00:54.063Z,6.60
2022-08-23T03:03:23.840Z,4.37
2022-08-23T03:05:51.092Z,5.87
2022-08-23T03:08:20.635Z,6.27
2022-08-23T03:10:52.714Z,5.47
2022-08-23T03:13:20.891Z,5.50
2022-08-23T03:15:49.981Z,5.23
2022-08-23T03:18:17.662Z,4.10
2022-08-23T03:20:44.862Z,5.77
2022-08-23T03:23:13.361Z,4.47
2022-08-23T03:25:40.620Z,3.73
2022-08-23T03:28:16.011Z,3.80
2022-08-23T03:30:45.016Z,3.47
2022-08-23T03:33:13.082Z,3.80
2022-08-23T03:35:40.764Z,3.17
2022-08-23T03:38:09.973Z,2.77
2022-08-23T03:40:37.528Z,2.47
2022-08-23T03:43:05.356Z,3.20
2022-08-23T03:45:33.041Z,2.90
2022-08-23T03:48:00.138Z,3.23
2022-08-23T03:50:27.737Z,3.50
2022-08-23T03:52:54.874Z,3.37
2022-08-23T03:55:22.116Z,3.60
2022-08-23T03:57:50.076Z,4.00
2022-08-23T04:00:20.608Z,2.90
2022-08-23T04:02:49.879Z,4.10
2022-08-23T04:05:17.063Z,4.40
2022-08-23T04:08:13.935Z,3.20
2022-08-23T04:10:42.976Z,3.67
2022-08-23T04:13:10.445Z,2.53
2022-08-23T04:15:38.244Z,4.30
2022-08-23T04:18:09.257Z,4.90
2022-08-23T04:20:36.881Z,3.80
2022-08-23T04:23:05.468Z,4.43
2022-08-23T04:25:40.276Z,5.47
2022-08-23T04:28:07.513Z,3.93
2022-08-23T04:30:34.605Z,4.00
2022-08-23T04:33:04.517Z,5.90
2022-08-23T04:35:37.585Z,4.53
2022-08-23T04:38:04.992Z,3.90
2022-08-23T04:41:12.194Z,3.47
2022-08-23T04:43:41.251Z,3.57
2022-08-23T04:46:10.276Z,4.10
2022-08-23T04:48:38.102Z,6.23
2022-08-23T04:51:05.852Z,5.23
2022-08-23T04:53:35.717Z,6.20
2022-08-23T04:56:23.328Z,4.53
2022-08-23T04:58:50.961Z,4.33
2022-08-23T05:01:17.966Z,4.77
2022-08-23T05:03:46.605Z,5.40
2022-08-23T05:06:13.631Z,5.33
2022-08-23T05:08:41.708Z,5.27
2022-08-23T05:11:11.551Z,5.00
2022-08-23T05:13:40.784Z,5.07
2022-08-23T05:16:10.323Z,6.03
2022-08-23T05:18:43.226Z,5.33
2022-08-23T05:21:20.491Z,6.00
2022-08-23T05:23:50.923Z,6.93
2022-08-23T05:26:22.389Z,5.57
2022-08-23T05:28:50.491Z,4.60
2022-08-23T05:31:24.563Z,5.40
2022-08-23T05:33:57.883Z,6.10
2022-08-23T05:36:35.798Z,5.80
2022-08-23T05:39:04.331Z,5.80
2022-08-23T05:41:38.033Z,5.97
2022-08-23T05:44:10.471Z,6.60
2022-08-23T05:46:42.215Z,6.10
2022-08-23T05:49:29.186Z,4.97
2022-08-23T05:51:56.756Z,5.17
2022-08-23T05:54:27.729Z,5.10
2022-08-23T05:57:26.765Z,5.27
2022-08-23T05:59:53.679Z,6.07
2022-08-23T06:02:21.229Z,5.67
2022-08-23T06:04:48.148Z,5.73
2022-08-23T06:07:16.624Z,4.90
2022-08-23T06:09:43.796Z,5.57
2022-08-23T06:12:11.244Z,5.53
2022-08-23T06:14:39.099Z,5.60
2022-08-23T06:17:06.016Z,5.17
2022-08-23T06:19:33.480Z,5.10
2022-08-23T06:22:19.730Z,5.13
2022-08-23T06:24:48.041Z,4.90
2022-08-23T06:27:17.614Z,4.70
2022-08-23T06:29:45.992Z,4.40
2022-08-23T06:32:31.208Z,4.53
2022-08-23T06:35:38.699Z,3.80
2022-08-23T06:38:24.492Z,3.10
2022-08-23T06:41:07.484Z,3.27
2022-08-23T06:43:53.088Z,3.10
2022-08-23T06:46:30.875Z,2.80
2022-08-23T06:48:59.489Z,3.00
2022-08-23T06:51:41.556Z,3.23
2022-08-23T06:54:29.648Z,2.47
2022-08-23T06:57:20.535Z,2.83
2022-08-23T07:00:10.583Z,2.43
2022-08-23T07:02:56.584Z,2.40
2022-08-23T07:05:59.262Z,2.47
2022-08-23T07:08:29.105Z,3.13
2022-08-23T07:10:57.014Z,2.63
2022-08-23T07:13:24.006Z,2.63
2022-08-23T07:16:02.946Z,2.67
2022-08-23T07:18:33.119Z,2.47
2022-08-23T07:21:03.667Z,2.97
2022-08-23T07:23:33.659Z,2.47
2022-08-23T07:26:13.455Z,2.60
2022-08-23T07:28:41.877Z,2.17
2022-08-23T07:31:27.393Z,2.20
2022-08-23T07:33:58.802Z,2.20
2022-08-23T07:36:28.782Z,2.40
2022-08-23T07:38:56.303Z,2.53
2022-08-23T07:41:30.991Z,2.57
2022-08-23T07:44:02.903Z,2.50
2022-08-23T07:46:33.199Z,2.30
2022-08-23T07:49:04.166Z,2.20
2022-08-23T07:51:39.356Z,2.40
2022-08-23T07:54:10.285Z,1.93
2022-08-23T07:57:01.236Z,2.22
2022-08-23T07:59:52.448Z,2.55
2022-08-23T08:02:38.082Z,2.67
2022-08-23T08:05:08.098Z,2.10
2022-08-23T08:07:37.620Z,2.33
2022-08-23T08:10:06.168Z,2.40
2022-08-23T08:12:33.209Z,2.25
2022-08-23T08:15:09.675Z,1.98
2022-08-23T08:17:42.434Z,2.28
2022-08-23T08:20:21.287Z,2.47
2022-08-23T08:23:07.134Z,2.55
2022-08-23T08:26:13.688Z,2.35
2022-08-23T08:28:52.327Z,2.28
2022-08-23T08:31:19.718Z,2.40
2022-08-23T08:33:46.736Z,2.13
2022-08-23T08:36:47.485Z,2.65
2022-08-23T08:39:26.269Z,2.50
2022-08-23T08:42:31.536Z,2.30
2022-08-23T08:45:03.611Z,2.30
2022-08-23T08:48:03.653Z,2.35
2022-08-23T08:50:49.281Z,2.20
2022-08-23T08:53:34.426Z,2.58
2022-08-23T08:56:32.312Z,2.22
2022-08-23T08:59:26.873Z,2.10
2022-08-23T09:01:54.416Z,3.45
2022-08-23T09:04:37.171Z,2.30
2022-08-23T09:07:31.223Z,2.80
2022-08-23T09:10:42.827Z,2.40
2022-08-23T09:13:55.773Z,1.90
2022-08-23T09:16:57.680Z,2.15
2022-08-23T09:19:25.418Z,2.03
2022-08-23T09:22:10.552Z,2.50
2022-08-23T09:24:37.589Z,2.60
2022-08-23T09:27:11.257Z,2.15
2022-08-23T09:29:50.776Z,2.22
2022-08-23T09:32:37.863Z,2.20
2022-08-23T09:35:24.224Z,2.30
2022-08-23T09:38:20.529Z,2.38
2022-08-23T09:40:54.065Z,2.70
2022-08-23T09:43:27.579Z,1.98
2022-08-23T09:46:01.001Z,2.38
2022-08-23T09:48:43.194Z,2.30
2022-08-23T09:51:30.994Z,2.30
2022-08-23T09:54:18.905Z,2.53
2022-08-23T09:57:01.867Z,2.30
2022-08-23T10:00:20.374Z,2.00
2022-08-23T10:02:57.227Z,2.25
2022-08-23T10:05:41.235Z,2.15
2022-08-23T10:08:46.947Z,2.05
2022-08-23T10:11:31.150Z,2.20
2022-08-23T10:13:58.870Z,2.20
2022-08-23T10:16:48.580Z,2.20
2022-08-23T10:19:42.487Z,2.00
2022-08-23T10:22:26.856Z,2.17
2022-08-23T10:25:40.197Z,1.88
2022-08-23T10:28:39.415Z,1.90
2022-08-23T10:31:47.552Z,1.73
2022-08-23T10:34:35.696Z,1.90
2022-08-23T10:37:23.890Z,1.92
2022-08-23T10:40:45.936Z,1.90
2022-08-23T10:43:43.925Z,1.80
2022-08-23T10:46:11.717Z,2.33
2022-08-23T10:48:55.470Z,1.92
2022-08-23T10:51:36.987Z,1.95
2022-08-23T10:54:24.033Z,1.70
2022-08-23T10:56:57.769Z,2.00
2022-08-23T10:59:26.871Z,1.77
2022-08-23T11:02:36.310Z,1.90
2022-08-23T11:05:32.679Z,1.55
2022-08-23T11:08:33.552Z,1.70
2022-08-23T11:11:03.563Z,1.80
2022-08-23T11:13:35.149Z,1.60
2022-08-23T11:16:31.193Z,1.83
2022-08-23T11:18:59.021Z,1.42
2022-08-23T11:21:40.806Z,1.92
2022-08-23T11:24:14.185Z,1.83
2022-08-23T11:26:44.753Z,1.77
2022-08-23T11:29:21.488Z,1.60
2022-08-23T11:32:30.005Z,2.00
2022-08-23T11:35:40.509Z,1.40
2022-08-23T11:38:12.501Z,1.58
2022-08-23T11:40:53.236Z,1.60
2022-08-23T11:43:34.512Z,1.30
2022-08-23T11:46:35.024Z,1.23
2022-08-23T11:49:28.663Z,1.60
2022-08-23T11:52:31.659Z,1.63
2022-08-23T11:55:29.205Z,1.38
2022-08-23T11:58:23.361Z,1.90
2022-08-23T12:01:11.994Z,1.50
2022-08-23T12:03:51.979Z,1.88
2022-08-23T12:07:13.243Z,2.75
2022-08-23T12:09:40.153Z,1.90
2022-08-23T12:12:24.997Z,2.13
2022-08-23T12:15:01.190Z,2.03
2022-08-23T12:17:31.369Z,1.70
2022-08-23T12:20:05.650Z,1.73
2022-08-23T12:23:05.730Z,1.70
2022-08-23T12:25:37.261Z,1.77
2022-08-23T12:28:19.519Z,1.45
2022-08-23T12:31:24.643Z,1.60
2022-08-23T12:34:05.967Z,1.63
2022-08-23T12:36:44.878Z,1.23
2022-08-23T12:39:32.911Z,1.65
2022-08-23T12:42:13.779Z,1.80
2022-08-23T12:44:41.121Z,1.50
2022-08-23T12:47:22.065Z,2.13
2022-08-23T12:50:12.211Z,2.08
2022-08-23T12:52:40.362Z,1.42
2022-08-23T12:55:18.421Z,1.75
2022-08-23T12:57:55.166Z,1.50
2022-08-23T13:00:39.104Z,1.70
2022-08-23T13:03:44.299Z,3.20
2022-08-23T13:06:21.615Z,1.88
2022-08-23T13:08:56.992Z,1.40
2022-08-23T13:11:35.386Z,1.60
2022-08-23T13:14:49.417Z,2.40
2022-08-23T13:17:25.215Z,1.80
2022-08-23T13:20:06.532Z,1.75
2022-08-23T13:22:36.768Z,1.30
2022-08-23T13:25:29.149Z,1.58
2022-08-23T13:28:29.429Z,1.40
2022-08-23T13:31:10.944Z,1.40
2022-08-23T13:33:40.935Z,1.40
2022-08-23T13:36:21.272Z,1.63
2022-08-23T13:38:48.918Z,1.80
2022-08-23T13:41:39.003Z,1.58
2022-08-23T13:44:09.396Z,1.60
2022-08-23T13:46:46.929Z,1.48
2022-08-23T13:49:24.483Z,1.77
2022-08-23T13:52:18.686Z,1.60
2022-08-23T13:54:51.061Z,1.73
2022-08-23T13:57:21.591Z,1.63
2022-08-23T13:59:55.185Z,1.70
2022-08-23T14:02:24.640Z,1.70
2022-08-23T14:04:52.217Z,2.30
2022-08-23T14:07:19.905Z,1.60
2022-08-23T14:09:46.888Z,1.50
2022-08-23T14:12:27.776Z,1.50
2022-08-23T14:14:57.803Z,1.60
2022-08-23T14:17:25.388Z,1.27
2022-08-23T14:20:32.298Z,1.40
2022-08-23T14:22:40.440Z,2.25
2022-08-23T14:25:09.189Z,1.88
2022-08-23T14:27:40.851Z,1.40
2022-08-23T14:30:13.018Z,1.67
2022-08-23T14:32:41.073Z,1.40
2022-08-23T14:35:08.864Z,1.83
2022-08-23T14:40:25.534Z,1.58
2022-08-23T14:42:53.744Z,1.77
2022-08-23T14:45:21.821Z,1.55
2022-08-23T14:47:48.732Z,1.48
2022-08-23T14:50:16.118Z,2.10
2022-08-23T14:52:46.567Z,1.60
2022-08-23T14:55:14.846Z,1.50
2022-08-23T14:57:42.101Z,1.80
2022-08-23T15:00:14.772Z,1.10
2022-08-23T15:02:46.862Z,1.63
2022-08-23T15:05:15.058Z,1.42
2022-08-23T15:07:42.713Z,1.25
2022-08-23T15:10:49.661Z,1.65
2022-08-23T15:13:12.969Z,1.48
2022-08-23T15:15:43.164Z,1.60
2022-08-23T15:18:10.229Z,1.55
2022-08-23T15:20:39.023Z,1.80
2022-08-23T15:23:09.213Z,1.40
2022-08-23T15:25:40.054Z,1.50
2022-08-23T15:28:13.307Z,1.45
2022-08-23T15:30:42.321Z,1.77
2022-08-23T15:33:10.565Z,1.52
2022-08-23T15:35:46.958Z,1.70
2022-08-23T15:38:16.581Z,1.33
2022-08-23T15:40:44.269Z,1.55
2022-08-23T15:43:11.780Z,1.50
2022-08-23T15:45:39.487Z,5.72
2022-08-23T15:48:21.774Z,2.28
2022-08-23T15:50:49.732Z,3.33
2022-08-23T15:53:17.028Z,2.70
2022-08-23T15:55:46.310Z,2.97
2022-08-23T15:58:24.718Z,1.30
2022-08-23T16:00:53.755Z,1.80
2022-08-23T16:03:22.518Z,1.50
2022-08-23T16:05:53.708Z,1.70
2022-08-23T16:08:32.136Z,1.52
2022-08-23T16:11:02.268Z,1.73
2022-08-23T16:13:29.270Z,1.40
2022-08-23T16:15:57.500Z,1.70
2022-08-23T16:18:24.635Z,1.52
2022-08-23T16:20:54.216Z,1.50
2022-08-23T16:23:22.839Z,2.83
2022-08-23T16:25:52.058Z,1.88
2022-08-23T16:28:19.190Z,1.70
2022-08-23T16:30:46.652Z,1.60
2022-08-23T16:33:13.953Z,2.20
2022-08-23T16:35:40.854Z,1.58
2022-08-23T16:38:07.803Z,1.92
2022-08-23T16:40:34.993Z,1.48
2022-08-23T16:43:02.060Z,1.63
2022-08-23T16:45:29.142Z,1.60
2022-08-23T16:47:56.297Z,1.70
2022-08-23T16:50:23.523Z,1.60
2022-08-23T16:52:50.573Z,1.60
2022-08-23T16:55:17.463Z,1.70
2022-08-23T16:57:44.531Z,1.63
2022-08-23T17:00:13.879Z,1.63
2022-08-23T17:02:41.847Z,1.42
2022-08-23T17:05:14.263Z,1.40
2022-08-23T17:07:41.498Z,1.73
2022-08-23T17:10:11.317Z,1.60
2022-08-23T17:12:43.040Z,1.35
2022-08-23T17:15:20.225Z,1.80
2022-08-23T17:17:48.376Z,1.15
2022-08-23T17:20:16.808Z,1.40
2022-08-23T17:22:43.885Z,1.60
2022-08-23T17:25:11.793Z,1.67
2022-08-23T17:27:45.466Z,1.65
2022-08-23T17:30:16.857Z,1.60
2022-08-23T17:32:44.366Z,2.85
2022-08-23T17:35:15.110Z,1.73
2022-08-23T17:37:42.656Z,1.90
2022-08-23T17:40:16.958Z,1.70
2022-08-23T17:42:49.763Z,1.90
2022-08-23T17:45:17.803Z,2.50
2022-08-23T17:47:44.686Z,2.55
2022-08-23T17:50:12.376Z,2.10
2022-08-23T17:52:39.573Z,1.52
2022-08-23T17:55:07.807Z,1.55
2022-08-23T17:57:34.961Z,2.47
2022-08-23T18:00:03.435Z,2.00
2022-08-23T18:02:31.415Z,1.75
2022-08-23T18:04:58.654Z,1.65
2022-08-23T18:07:26.044Z,1.70
2022-08-23T18:09:53.002Z,2.15
2022-08-23T18:12:20.379Z,1.85
2022-08-23T18:14:47.288Z,1.80
2022-08-23T18:17:14.281Z,1.80
2022-08-23T18:19:41.491Z,2.28
2022-08-23T18:22:08.745Z,2.20
2022-08-23T18:24:35.649Z,2.08
2022-08-23T18:27:21.618Z,1.60
2022-08-23T18:29:51.569Z,2.20
2022-08-23T18:32:19.510Z,2.10
2022-08-23T18:34:46.511Z,2.30
2022-08-23T18:37:17.151Z,2.58
2022-08-23T18:39:44.842Z,2.38
2022-08-23T18:42:12.139Z,1.75
2022-08-23T18:44:39.602Z,1.98
2022-08-23T18:47:07.433Z,1.83
2022-08-23T18:49:36.106Z,1.88
2022-08-23T18:52:04.313Z,2.25
2022-08-23T18:54:34.109Z,2.10
2022-08-23T18:57:02.664Z,2.05
2022-08-23T18:59:30.762Z,2.75
2022-08-23T19:01:57.891Z,3.33
2022-08-23T19:04:25.819Z,2.20
2022-08-23T19:06:55.704Z,2.58
2022-08-23T19:09:22.785Z,2.70
2022-08-23T19:11:50.205Z,3.15
2022-08-23T19:14:17.176Z,3.28
2022-08-23T19:16:48.115Z,2.55
2022-08-23T19:19:16.767Z,2.20
2022-08-23T19:21:43.887Z,2.40
2022-08-23T19:24:11.161Z,2.40
2022-08-23T19:26:38.131Z,1.80
2022-08-23T19:29:09.263Z,2.37
2022-08-23T19:31:42.782Z,2.53
2022-08-23T19:34:11.286Z,1.60
2022-08-23T19:36:47.516Z,2.47
2022-08-23T19:39:17.937Z,2.43
2022-08-23T19:41:46.183Z,2.53
2022-08-23T19:44:13.078Z,3.00
2022-08-23T19:46:42.433Z,3.23
2022-08-23T19:49:11.897Z,4.03
2022-08-23T19:51:39.933Z,3.90
2022-08-23T19:54:11.457Z,3.70
2022-08-23T19:56:46.389Z,4.10
2022-08-23T19:59:20.231Z,4.00
2022-08-23T20:01:49.713Z,3.57
2022-08-23T20:04:18.064Z,3.30
2022-08-23T20:06:45.303Z,3.17
2022-08-23T20:09:12.335Z,4.00
2022-08-23T20:11:39.560Z,4.30
2022-08-23T20:14:07.587Z,3.93
2022-08-23T20:16:36.194Z,3.30
2022-08-23T20:19:06.279Z,3.73
2022-08-23T20:21:33.339Z,3.90
2022-08-23T20:24:06.491Z,3.13
2022-08-23T20:26:42.610Z,4.07
2022-08-23T20:29:19.723Z,3.07
2022-08-23T20:31:57.387Z,3.10
2022-08-23T20:34:27.160Z,3.73
2022-08-23T20:36:56.029Z,4.07
2022-08-23T20:39:24.416Z,3.27
2022-08-23T20:41:53.180Z,4.10
2022-08-23T20:44:22.924Z,4.00
2022-08-23T20:46:53.956Z,2.70
2022-08-23T20:49:24.181Z,3.13
2022-08-23T20:51:51.327Z,3.47
2022-08-23T20:54:22.077Z,3.83
2022-08-23T20:56:51.781Z,4.07
2022-08-23T20:59:19.453Z,2.70
2022-08-23T21:01:46.592Z,2.60
2022-08-23T21:04:13.826Z,2.77
2022-08-23T21:06:45.883Z,3.50
2022-08-23T21:09:19.131Z,2.40
2022-08-23T21:11:48.282Z,2.67
2022-08-23T21:14:17.271Z,3.13
2022-08-23T21:16:47.439Z,2.90
2022-08-23T21:19:15.556Z,3.30
2022-08-23T21:21:43.413Z,3.50
2022-08-23T21:24:12.500Z,4.40
2022-08-23T21:26:42.219Z,4.17
2022-08-23T21:29:10.630Z,4.60
2022-08-23T21:31:37.887Z,3.60
2022-08-23T21:34:06.017Z,3.20
2022-08-23T21:36:33.024Z,3.40
2022-08-23T21:38:59.963Z,2.97
2022-08-23T21:41:35.164Z,2.67
2022-08-23T21:44:05.669Z,3.87
2022-08-23T21:46:33.179Z,4.60
2022-08-23T21:49:00.414Z,4.40
2022-08-23T21:51:27.396Z,4.47
2022-08-23T21:53:54.331Z,3.97
2022-08-23T21:56:21.566Z,3.50
2022-08-23T21:58:50.708Z,3.53
2022-08-23T22:01:18.699Z,3.43
2022-08-23T22:03:45.715Z,4.43
2022-08-23T22:06:17.470Z,3.63
2022-08-23T22:08:45.963Z,3.07
2022-08-23T22:11:15.714Z,2.50
2022-08-23T22:13:43.527Z,3.53
2022-08-23T22:16:11.372Z,3.70
2022-08-23T22:18:38.712Z,4.73
2022-08-23T22:21:06.962Z,4.80
2022-08-23T22:23:36.393Z,5.20
2022-08-23T22:26:06.790Z,6.50
2022-08-23T22:28:36.054Z,4.63
2022-08-23T22:31:06.717Z,5.27
2022-08-23T22:33:33.880Z,4.00
2022-08-23T22:36:12.049Z,2.90
2022-08-23T22:38:42.786Z,2.67
2022-08-23T22:41:10.279Z,3.10
2022-08-23T22:43:37.305Z,4.77
2022-08-23T22:46:05.201Z,3.77
2022-08-23T22:48:37.223Z,3.40
2022-08-23T22:51:21.690Z,3.40
2022-08-23T22:53:54.437Z,3.60
2022-08-23T22:56:32.068Z,3.07
2022-08-23T22:59:01.012Z,3.23
2022-08-23T23:01:34.138Z,3.17
2022-08-23T23:04:06.008Z,2.83
2022-08-23T23:06:36.236Z,3.90
2022-08-23T23:09:06.870Z,3.83
2022-08-23T23:11:35.756Z,2.67
2022-08-23T23:14:05.392Z,3.40
2022-08-23T23:16:33.504Z,3.00
2022-08-23T23:19:19.203Z,2.87
2022-08-23T23:21:53.494Z,3.13
2022-08-23T23:24:34.129Z,3.30
2022-08-23T23:27:02.748Z,2.77
2022-08-23T23:29:32.089Z,3.03
2022-08-23T23:31:59.592Z,3.17
2022-08-23T23:34:28.177Z,3.20
2022-08-23T23:36:59.359Z,3.93
2022-08-23T23:39:27.610Z,4.27
2022-08-23T23:41:54.857Z,5.03
2022-08-23T23:44:22.459Z,3.87
2022-08-23T23:46:59.444Z,3.40
2022-08-23T23:49:31.998Z,3.50
2022-08-23T23:52:00.000Z,4.03
2022-08-23T23:54:26.857Z,3.23
2022-08-23T23:56:53.898Z,4.63
2022-08-23T23:59:20.758Z,3.80
